Cragsmoor, New York
Current Conditions -  °F | °C
As of 7:54 AM on Saturday 20 Dec 2014 (Local Time) from KMGJ Reporting Station
Overcast Overcast  
Wind Chill: 20°   Ceiling: 2500
Heat Index: 28°   Visibility: 10mi
Dew Point: 19°   Wind: 8mph
Humidity: 69%   Direction: 50°NE
Pressure: 30.26"   Gusts: NA
Location:  41.67°N, 74.39°W
Report Text: KMGJ 201254Z AUTO 05007KT 10SM OVC025 M02/M07 A3026 RMK AO2 SLP251 T10221072 TSNO
Loading
Personal Weather Stations






























Interactive Weather Map New forecast layout! Learn more

10-Day Weather Forecast

Advertisements
Track Severe Weather on mobile